sensor_id;sensor_type;location;lat;lon;timestamp;P1;durP1;ratioP1;P2;durP2;ratioP2
43160;SDS011;40968;52.342;5.528;2022-09-03T00:01:17;4.35;;;2.20;;
43160;SDS011;40968;52.342;5.528;2022-09-03T00:03:50;6.18;;;2.28;;
43160;SDS011;40968;52.342;5.528;2022-09-03T00:06:22;4.97;;;2.42;;
43160;SDS011;40968;52.342;5.528;2022-09-03T00:08:56;5.35;;;2.00;;
43160;SDS011;40968;52.342;5.528;2022-09-03T00:11:29;4.68;;;2.13;;
43160;SDS011;40968;52.342;5.528;2022-09-03T00:14:03;6.50;;;2.67;;
43160;SDS011;40968;52.342;5.528;2022-09-03T00:16:33;3.17;;;1.90;;
43160;SDS011;40968;52.342;5.528;2022-09-03T00:19:09;5.68;;;2.33;;
43160;SDS011;40968;52.342;5.528;2022-09-03T00:21:40;8.07;;;2.47;;
43160;SDS011;40968;52.342;5.528;2022-09-03T00:24:12;4.97;;;2.45;;
43160;SDS011;40968;52.342;5.528;2022-09-03T00:29:10;8.60;;;2.40;;
43160;SDS011;40968;52.342;5.528;2022-09-03T00:31:42;8.70;;;2.22;;
43160;SDS011;40968;52.342;5.528;2022-09-03T00:34:13;6.15;;;2.47;;
43160;SDS011;40968;52.342;5.528;2022-09-03T00:36:43;4.07;;;2.03;;
43160;SDS011;40968;52.342;5.528;2022-09-03T00:39:13;5.28;;;2.40;;
43160;SDS011;40968;52.342;5.528;2022-09-03T00:41:44;5.38;;;2.40;;
43160;SDS011;40968;52.342;5.528;2022-09-03T00:47:20;8.05;;;2.30;;
43160;SDS011;40968;52.342;5.528;2022-09-03T00:49:55;5.97;;;2.30;;
43160;SDS011;40968;52.342;5.528;2022-09-03T00:52:33;8.05;;;2.50;;
43160;SDS011;40968;52.342;5.528;2022-09-03T00:55:12;5.07;;;2.17;;
43160;SDS011;40968;52.342;5.528;2022-09-03T00:57:52;7.65;;;2.42;;
43160;SDS011;40968;52.342;5.528;2022-09-03T01:00:27;9.57;;;2.50;;
43160;SDS011;40968;52.342;5.528;2022-09-03T01:02:56;4.75;;;2.03;;
43160;SDS011;40968;52.342;5.528;2022-09-03T01:05:35;7.28;;;2.50;;
43160;SDS011;40968;52.342;5.528;2022-09-03T01:08:12;7.15;;;2.55;;
43160;SDS011;40968;52.342;5.528;2022-09-03T01:10:53;14.13;;;2.85;;
43160;SDS011;40968;52.342;5.528;2022-09-03T01:13:28;4.00;;;2.10;;
43160;SDS011;40968;52.342;5.528;2022-09-03T01:16:02;7.13;;;2.15;;
43160;SDS011;40968;52.342;5.528;2022-09-03T01:18:41;6.17;;;2.23;;
43160;SDS011;40968;52.342;5.528;2022-09-03T01:21:22;6.93;;;2.63;;
43160;SDS011;40968;52.342;5.528;2022-09-03T01:27:06;5.07;;;2.25;;
43160;SDS011;40968;52.342;5.528;2022-09-03T01:29:45;7.82;;;2.65;;
43160;SDS011;40968;52.342;5.528;2022-09-03T01:32:21;4.53;;;2.50;;
43160;SDS011;40968;52.342;5.528;2022-09-03T01:34:55;6.93;;;2.40;;
43160;SDS011;40968;52.342;5.528;2022-09-03T01:37:30;7.47;;;2.15;;
43160;SDS011;40968;52.342;5.528;2022-09-03T01:40:10;2.35;;;1.90;;
43160;SDS011;40968;52.342;5.528;2022-09-03T01:42:47;15.32;;;2.67;;
43160;SDS011;40968;52.342;5.528;2022-09-03T01:45:31;3.70;;;2.05;;
43160;SDS011;40968;52.342;5.528;2022-09-03T01:48:13;7.68;;;2.30;;
43160;SDS011;40968;52.342;5.528;2022-09-03T01:50:55;7.78;;;2.42;;
43160;SDS011;40968;52.342;5.528;2022-09-03T01:53:33;4.28;;;2.10;;
43160;SDS011;40968;52.342;5.528;2022-09-03T01:56:26;9.07;;;2.63;;
43160;SDS011;40968;52.342;5.528;2022-09-03T01:59:03;6.05;;;2.42;;
43160;SDS011;40968;52.342;5.528;2022-09-03T02:01:48;4.68;;;2.10;;
43160;SDS011;40968;52.342;5.528;2022-09-03T02:04:20;5.47;;;2.20;;
43160;SDS011;40968;52.342;5.528;2022-09-03T02:06:49;11.57;;;2.40;;
43160;SDS011;40968;52.342;5.528;2022-09-03T02:09:16;4.57;;;1.95;;
43160;SDS011;40968;52.342;5.528;2022-09-03T02:11:44;6.68;;;2.42;;
43160;SDS011;40968;52.342;5.528;2022-09-03T02:14:16;6.35;;;2.20;;
43160;SDS011;40968;52.342;5.528;2022-09-03T02:16:42;9.82;;;2.50;;
43160;SDS011;40968;52.342;5.528;2022-09-03T02:19:12;2.17;;;1.90;;
43160;SDS011;40968;52.342;5.528;2022-09-03T02:21:42;4.82;;;1.75;;
43160;SDS011;40968;52.342;5.528;2022-09-03T02:24:13;4.80;;;2.25;;
43160;SDS011;40968;52.342;5.528;2022-09-03T02:26:39;7.15;;;2.25;;
43160;SDS011;40968;52.342;5.528;2022-09-03T02:29:06;3.95;;;1.70;;
43160;SDS011;40968;52.342;5.528;2022-09-03T02:31:33;6.82;;;2.17;;
43160;SDS011;40968;52.342;5.528;2022-09-03T02:33:59;7.63;;;2.10;;
43160;SDS011;40968;52.342;5.528;2022-09-03T02:36:28;6.28;;;2.22;;
43160;SDS011;40968;52.342;5.528;2022-09-03T02:38:58;8.82;;;1.90;;
43160;SDS011;40968;52.342;5.528;2022-09-03T02:41:33;4.97;;;2.10;;
43160;SDS011;40968;52.342;5.528;2022-09-03T02:44:01;3.67;;;1.90;;
43160;SDS011;40968;52.342;5.528;2022-09-03T02:46:32;4.35;;;1.88;;
43160;SDS011;40968;52.342;5.528;2022-09-03T02:49:02;4.97;;;2.20;;
43160;SDS011;40968;52.342;5.528;2022-09-03T02:51:34;7.65;;;1.90;;
43160;SDS011;40968;52.342;5.528;2022-09-03T02:54:02;5.70;;;1.85;;
43160;SDS011;40968;52.342;5.528;2022-09-03T02:56:28;6.00;;;2.03;;
43160;SDS011;40968;52.342;5.528;2022-09-03T02:58:55;3.70;;;1.80;;
43160;SDS011;40968;52.342;5.528;2022-09-03T03:01:22;7.40;;;2.00;;
43160;SDS011;40968;52.342;5.528;2022-09-03T03:03:50;3.53;;;1.80;;
43160;SDS011;40968;52.342;5.528;2022-09-03T03:06:17;6.88;;;2.03;;
43160;SDS011;40968;52.342;5.528;2022-09-03T03:08:46;3.58;;;1.85;;
43160;SDS011;40968;52.342;5.528;2022-09-03T03:11:14;3.85;;;1.75;;
43160;SDS011;40968;52.342;5.528;2022-09-03T03:13:42;5.20;;;1.83;;
43160;SDS011;40968;52.342;5.528;2022-09-03T03:16:10;3.75;;;1.77;;
43160;SDS011;40968;52.342;5.528;2022-09-03T03:18:37;4.47;;;2.30;;
43160;SDS011;40968;52.342;5.528;2022-09-03T03:21:04;4.15;;;2.17;;
43160;SDS011;40968;52.342;5.528;2022-09-03T03:23:31;8.15;;;2.08;;
43160;SDS011;40968;52.342;5.528;2022-09-03T03:26:00;5.07;;;2.00;;
43160;SDS011;40968;52.342;5.528;2022-09-03T03:28:27;2.47;;;1.65;;
43160;SDS011;40968;52.342;5.528;2022-09-03T03:30:58;6.53;;;2.00;;
43160;SDS011;40968;52.342;5.528;2022-09-03T03:33:24;3.65;;;2.03;;
43160;SDS011;40968;52.342;5.528;2022-09-03T03:35:51;7.43;;;2.20;;
43160;SDS011;40968;52.342;5.528;2022-09-03T03:38:19;2.95;;;1.73;;
43160;SDS011;40968;52.342;5.528;2022-09-03T03:40:45;6.30;;;2.22;;
43160;SDS011;40968;52.342;5.528;2022-09-03T03:43:13;4.80;;;1.60;;
43160;SDS011;40968;52.342;5.528;2022-09-03T03:45:40;4.45;;;1.60;;
43160;SDS011;40968;52.342;5.528;2022-09-03T03:48:06;4.45;;;1.83;;
43160;SDS011;40968;52.342;5.528;2022-09-03T03:50:33;7.15;;;2.08;;
43160;SDS011;40968;52.342;5.528;2022-09-03T03:52:59;5.22;;;1.98;;
43160;SDS011;40968;52.342;5.528;2022-09-03T03:55:26;5.50;;;1.80;;
43160;SDS011;40968;52.342;5.528;2022-09-03T03:57:53;5.40;;;1.85;;
43160;SDS011;40968;52.342;5.528;2022-09-03T04:00:21;5.82;;;1.67;;
43160;SDS011;40968;52.342;5.528;2022-09-03T04:02:47;4.07;;;1.90;;
43160;SDS011;40968;52.342;5.528;2022-09-03T04:05:14;4.03;;;2.10;;
43160;SDS011;40968;52.342;5.528;2022-09-03T04:07:40;7.40;;;2.20;;
43160;SDS011;40968;52.342;5.528;2022-09-03T04:10:08;4.05;;;1.80;;
43160;SDS011;40968;52.342;5.528;2022-09-03T04:12:35;3.97;;;1.70;;
43160;SDS011;40968;52.342;5.528;2022-09-03T04:15:02;7.40;;;1.80;;
43160;SDS011;40968;52.342;5.528;2022-09-03T04:17:30;6.03;;;1.90;;
43160;SDS011;40968;52.342;5.528;2022-09-03T04:19:57;4.95;;;2.08;;
43160;SDS011;40968;52.342;5.528;2022-09-03T04:22:23;3.72;;;1.90;;
43160;SDS011;40968;52.342;5.528;2022-09-03T04:24:50;5.10;;;1.65;;
43160;SDS011;40968;52.342;5.528;2022-09-03T04:27:17;4.22;;;2.15;;
43160;SDS011;40968;52.342;5.528;2022-09-03T04:29:43;7.03;;;1.73;;
43160;SDS011;40968;52.342;5.528;2022-09-03T04:32:10;2.85;;;1.80;;
43160;SDS011;40968;52.342;5.528;2022-09-03T04:34:55;4.35;;;1.73;;
43160;SDS011;40968;52.342;5.528;2022-09-03T04:37:22;3.10;;;1.65;;
43160;SDS011;40968;52.342;5.528;2022-09-03T04:39:49;2.97;;;1.98;;
43160;SDS011;40968;52.342;5.528;2022-09-03T04:42:16;4.57;;;1.70;;
43160;SDS011;40968;52.342;5.528;2022-09-03T04:44:43;6.05;;;1.73;;
43160;SDS011;40968;52.342;5.528;2022-09-03T04:47:10;2.60;;;1.52;;
43160;SDS011;40968;52.342;5.528;2022-09-03T04:49:36;5.30;;;1.95;;
43160;SDS011;40968;52.342;5.528;2022-09-03T04:52:05;3.80;;;1.75;;
43160;SDS011;40968;52.342;5.528;2022-09-03T04:54:32;3.50;;;2.00;;
43160;SDS011;40968;52.342;5.528;2022-09-03T04:56:58;3.35;;;1.83;;
43160;SDS011;40968;52.342;5.528;2022-09-03T04:59:25;5.50;;;1.67;;
43160;SDS011;40968;52.342;5.528;2022-09-03T05:01:51;6.45;;;2.10;;
43160;SDS011;40968;52.342;5.528;2022-09-03T05:04:19;5.18;;;1.60;;
43160;SDS011;40968;52.342;5.528;2022-09-03T05:06:46;7.03;;;2.15;;
43160;SDS011;40968;52.342;5.528;2022-09-03T05:09:14;4.20;;;1.73;;
43160;SDS011;40968;52.342;5.528;2022-09-03T05:11:40;5.75;;;1.70;;
43160;SDS011;40968;52.342;5.528;2022-09-03T05:14:07;3.70;;;1.73;;
43160;SDS011;40968;52.342;5.528;2022-09-03T05:16:36;5.30;;;1.90;;
43160;SDS011;40968;52.342;5.528;2022-09-03T05:19:03;4.47;;;1.60;;
43160;SDS011;40968;52.342;5.528;2022-09-03T05:21:32;3.42;;;1.67;;
43160;SDS011;40968;52.342;5.528;2022-09-03T05:24:00;3.47;;;1.55;;
43160;SDS011;40968;52.342;5.528;2022-09-03T05:26:29;4.43;;;2.00;;
43160;SDS011;40968;52.342;5.528;2022-09-03T05:28:58;4.73;;;1.70;;
43160;SDS011;40968;52.342;5.528;2022-09-03T05:31:26;4.40;;;1.90;;
43160;SDS011;40968;52.342;5.528;2022-09-03T05:33:56;4.20;;;1.63;;
43160;SDS011;40968;52.342;5.528;2022-09-03T05:36:25;2.63;;;1.65;;
43160;SDS011;40968;52.342;5.528;2022-09-03T05:38:53;5.25;;;1.95;;
43160;SDS011;40968;52.342;5.528;2022-09-03T05:41:21;4.95;;;1.85;;
43160;SDS011;40968;52.342;5.528;2022-09-03T05:43:50;5.88;;;1.80;;
43160;SDS011;40968;52.342;5.528;2022-09-03T05:48:46;4.13;;;2.05;;
43160;SDS011;40968;52.342;5.528;2022-09-03T05:51:13;6.10;;;2.08;;
43160;SDS011;40968;52.342;5.528;2022-09-03T05:53:41;3.92;;;1.98;;
43160;SDS011;40968;52.342;5.528;2022-09-03T05:56:10;5.47;;;2.20;;
43160;SDS011;40968;52.342;5.528;2022-09-03T05:58:41;2.90;;;1.60;;
43160;SDS011;40968;52.342;5.528;2022-09-03T06:01:11;3.25;;;1.60;;
43160;SDS011;40968;52.342;5.528;2022-09-03T06:03:39;6.75;;;1.98;;
43160;SDS011;40968;52.342;5.528;2022-09-03T06:06:06;4.60;;;1.90;;
43160;SDS011;40968;52.342;5.528;2022-09-03T06:08:33;2.67;;;1.70;;
43160;SDS011;40968;52.342;5.528;2022-09-03T06:11:01;6.25;;;1.65;;
43160;SDS011;40968;52.342;5.528;2022-09-03T06:13:28;4.43;;;1.73;;
43160;SDS011;40968;52.342;5.528;2022-09-03T06:15:55;3.75;;;1.75;;
43160;SDS011;40968;52.342;5.528;2022-09-03T06:18:24;4.25;;;1.50;;
43160;SDS011;40968;52.342;5.528;2022-09-03T06:20:54;8.00;;;2.13;;
43160;SDS011;40968;52.342;5.528;2022-09-03T06:23:21;5.03;;;1.60;;
43160;SDS011;40968;52.342;5.528;2022-09-03T06:25:58;4.00;;;1.67;;
43160;SDS011;40968;52.342;5.528;2022-09-03T06:28:25;5.85;;;2.15;;
43160;SDS011;40968;52.342;5.528;2022-09-03T06:30:52;5.20;;;1.90;;
43160;SDS011;40968;52.342;5.528;2022-09-03T06:33:23;5.37;;;2.00;;
43160;SDS011;40968;52.342;5.528;2022-09-03T06:35:51;5.95;;;2.00;;
43160;SDS011;40968;52.342;5.528;2022-09-03T06:38:21;5.90;;;1.75;;
43160;SDS011;40968;52.342;5.528;2022-09-03T06:40:50;3.08;;;1.63;;
43160;SDS011;40968;52.342;5.528;2022-09-03T06:43:17;7.40;;;1.83;;
43160;SDS011;40968;52.342;5.528;2022-09-03T06:45:51;5.57;;;1.88;;
43160;SDS011;40968;52.342;5.528;2022-09-03T06:48:19;4.82;;;1.73;;
43160;SDS011;40968;52.342;5.528;2022-09-03T06:50:53;8.38;;;1.90;;
43160;SDS011;40968;52.342;5.528;2022-09-03T06:53:21;4.63;;;1.83;;
43160;SDS011;40968;52.342;5.528;2022-09-03T06:55:51;8.00;;;1.60;;
43160;SDS011;40968;52.342;5.528;2022-09-03T06:58:19;4.25;;;1.70;;
43160;SDS011;40968;52.342;5.528;2022-09-03T07:00:46;2.30;;;1.50;;
43160;SDS011;40968;52.342;5.528;2022-09-03T07:03:13;4.88;;;1.95;;
43160;SDS011;40968;52.342;5.528;2022-09-03T07:05:41;3.70;;;1.73;;
43160;SDS011;40968;52.342;5.528;2022-09-03T07:08:10;4.47;;;1.60;;
43160;SDS011;40968;52.342;5.528;2022-09-03T07:10:36;6.10;;;1.70;;
43160;SDS011;40968;52.342;5.528;2022-09-03T07:13:03;4.97;;;1.88;;
43160;SDS011;40968;52.342;5.528;2022-09-03T07:15:30;2.65;;;1.88;;
43160;SDS011;40968;52.342;5.528;2022-09-03T07:17:57;3.33;;;1.60;;
43160;SDS011;40968;52.342;5.528;2022-09-03T07:20:24;7.80;;;1.50;;
43160;SDS011;40968;52.342;5.528;2022-09-03T07:22:53;2.00;;;1.65;;
43160;SDS011;40968;52.342;5.528;2022-09-03T07:25:21;2.70;;;1.60;;
43160;SDS011;40968;52.342;5.528;2022-09-03T07:27:48;2.65;;;1.48;;
43160;SDS011;40968;52.342;5.528;2022-09-03T07:30:15;6.82;;;2.10;;
43160;SDS011;40968;52.342;5.528;2022-09-03T07:32:43;9.68;;;1.60;;
43160;SDS011;40968;52.342;5.528;2022-09-03T07:35:10;4.65;;;1.63;;
43160;SDS011;40968;52.342;5.528;2022-09-03T07:37:39;5.13;;;1.85;;
43160;SDS011;40968;52.342;5.528;2022-09-03T07:40:07;3.08;;;1.77;;
43160;SDS011;40968;52.342;5.528;2022-09-03T07:42:35;7.47;;;2.22;;
43160;SDS011;40968;52.342;5.528;2022-09-03T07:45:04;6.68;;;1.85;;
43160;SDS011;40968;52.342;5.528;2022-09-03T07:47:34;5.43;;;2.53;;
43160;SDS011;40968;52.342;5.528;2022-09-03T07:50:01;5.03;;;2.08;;
43160;SDS011;40968;52.342;5.528;2022-09-03T07:52:27;5.13;;;1.85;;
43160;SDS011;40968;52.342;5.528;2022-09-03T07:54:54;7.25;;;1.60;;
43160;SDS011;40968;52.342;5.528;2022-09-03T07:57:21;4.47;;;1.65;;
43160;SDS011;40968;52.342;5.528;2022-09-03T07:59:48;3.03;;;1.55;;
43160;SDS011;40968;52.342;5.528;2022-09-03T08:02:15;2.53;;;1.65;;
43160;SDS011;40968;52.342;5.528;2022-09-03T08:04:42;11.38;;;1.75;;
43160;SDS011;40968;52.342;5.528;2022-09-03T08:07:09;4.10;;;1.60;;
43160;SDS011;40968;52.342;5.528;2022-09-03T08:09:36;4.10;;;1.88;;
43160;SDS011;40968;52.342;5.528;2022-09-03T08:12:02;13.23;;;2.03;;
43160;SDS011;40968;52.342;5.528;2022-09-03T08:14:29;6.30;;;1.67;;
43160;SDS011;40968;52.342;5.528;2022-09-03T08:16:57;3.92;;;1.60;;
43160;SDS011;40968;52.342;5.528;2022-09-03T08:19:25;5.30;;;1.65;;
43160;SDS011;40968;52.342;5.528;2022-09-03T08:21:51;6.60;;;1.70;;
43160;SDS011;40968;52.342;5.528;2022-09-03T08:24:18;6.55;;;1.83;;
43160;SDS011;40968;52.342;5.528;2022-09-03T08:26:48;2.58;;;1.85;;
43160;SDS011;40968;52.342;5.528;2022-09-03T08:29:15;4.95;;;1.90;;
43160;SDS011;40968;52.342;5.528;2022-09-03T08:31:42;5.78;;;1.65;;
43160;SDS011;40968;52.342;5.528;2022-09-03T08:34:10;4.53;;;1.60;;
43160;SDS011;40968;52.342;5.528;2022-09-03T08:36:38;4.32;;;1.50;;
43160;SDS011;40968;52.342;5.528;2022-09-03T08:39:06;4.32;;;1.75;;
43160;SDS011;40968;52.342;5.528;2022-09-03T08:41:37;3.47;;;1.77;;
43160;SDS011;40968;52.342;5.528;2022-09-03T08:44:16;5.03;;;1.70;;
43160;SDS011;40968;52.342;5.528;2022-09-03T08:46:49;4.57;;;1.63;;
43160;SDS011;40968;52.342;5.528;2022-09-03T08:49:22;12.85;;;1.95;;
43160;SDS011;40968;52.342;5.528;2022-09-03T08:51:53;4.40;;;1.63;;
43160;SDS011;40968;52.342;5.528;2022-09-03T08:54:23;4.40;;;1.60;;
43160;SDS011;40968;52.342;5.528;2022-09-03T08:56:53;3.10;;;1.60;;
43160;SDS011;40968;52.342;5.528;2022-09-03T08:59:22;4.22;;;1.60;;
43160;SDS011;40968;52.342;5.528;2022-09-03T09:01:51;5.25;;;1.67;;
43160;SDS011;40968;52.342;5.528;2022-09-03T09:04:26;4.88;;;1.90;;
43160;SDS011;40968;52.342;5.528;2022-09-03T09:07:05;3.50;;;1.70;;
43160;SDS011;40968;52.342;5.528;2022-09-03T09:09:43;4.35;;;2.00;;
43160;SDS011;40968;52.342;5.528;2022-09-03T09:12:18;9.05;;;1.80;;
43160;SDS011;40968;52.342;5.528;2022-09-03T09:14:59;4.75;;;1.90;;
43160;SDS011;40968;52.342;5.528;2022-09-03T09:17:37;8.95;;;1.80;;
43160;SDS011;40968;52.342;5.528;2022-09-03T09:20:20;5.22;;;1.80;;
43160;SDS011;40968;52.342;5.528;2022-09-03T09:22:54;5.13;;;1.80;;
43160;SDS011;40968;52.342;5.528;2022-09-03T09:25:26;7.45;;;1.40;;
43160;SDS011;40968;52.342;5.528;2022-09-03T09:27:57;4.63;;;1.70;;
43160;SDS011;40968;52.342;5.528;2022-09-03T09:30:25;4.78;;;1.77;;
43160;SDS011;40968;52.342;5.528;2022-09-03T09:32:53;4.93;;;1.65;;
43160;SDS011;40968;52.342;5.528;2022-09-03T09:35:22;2.67;;;1.48;;
43160;SDS011;40968;52.342;5.528;2022-09-03T09:37:49;3.58;;;1.50;;
43160;SDS011;40968;52.342;5.528;2022-09-03T09:40:27;3.58;;;1.60;;
43160;SDS011;40968;52.342;5.528;2022-09-03T09:43:08;8.30;;;1.58;;
43160;SDS011;40968;52.342;5.528;2022-09-03T09:45:37;2.45;;;1.20;;
43160;SDS011;40968;52.342;5.528;2022-09-03T09:48:08;8.15;;;1.65;;
43160;SDS011;40968;52.342;5.528;2022-09-03T09:50:43;2.55;;;1.20;;
43160;SDS011;40968;52.342;5.528;2022-09-03T09:53:10;4.00;;;1.50;;
43160;SDS011;40968;52.342;5.528;2022-09-03T09:55:50;2.45;;;1.33;;
43160;SDS011;40968;52.342;5.528;2022-09-03T09:58:18;3.17;;;1.70;;
43160;SDS011;40968;52.342;5.528;2022-09-03T10:00:53;2.92;;;1.65;;
43160;SDS011;40968;52.342;5.528;2022-09-03T10:03:22;2.67;;;1.40;;
43160;SDS011;40968;52.342;5.528;2022-09-03T10:05:57;2.75;;;1.40;;
43160;SDS011;40968;52.342;5.528;2022-09-03T10:08:51;5.95;;;2.00;;
43160;SDS011;40968;52.342;5.528;2022-09-03T10:11:19;2.90;;;1.40;;
43160;SDS011;40968;52.342;5.528;2022-09-03T10:13:51;3.15;;;1.52;;
43160;SDS011;40968;52.342;5.528;2022-09-03T10:16:22;2.95;;;1.70;;
43160;SDS011;40968;52.342;5.528;2022-09-03T10:18:54;6.47;;;1.67;;
43160;SDS011;40968;52.342;5.528;2022-09-03T10:21:29;6.45;;;1.77;;
43160;SDS011;40968;52.342;5.528;2022-09-03T10:24:03;5.20;;;1.50;;
43160;SDS011;40968;52.342;5.528;2022-09-03T10:26:41;2.85;;;1.40;;
43160;SDS011;40968;52.342;5.528;2022-09-03T10:29:10;4.20;;;1.65;;
43160;SDS011;40968;52.342;5.528;2022-09-03T10:31:43;7.05;;;1.50;;
43160;SDS011;40968;52.342;5.528;2022-09-03T10:34:21;2.95;;;1.55;;
43160;SDS011;40968;52.342;5.528;2022-09-03T10:37:06;2.13;;;1.50;;
43160;SDS011;40968;52.342;5.528;2022-09-03T10:39:47;4.38;;;1.40;;
43160;SDS011;40968;52.342;5.528;2022-09-03T10:42:34;4.15;;;1.52;;
43160;SDS011;40968;52.342;5.528;2022-09-03T10:45:16;5.57;;;1.20;;
43160;SDS011;40968;52.342;5.528;2022-09-03T10:47:58;3.78;;;1.38;;
43160;SDS011;40968;52.342;5.528;2022-09-03T10:50:46;3.30;;;1.60;;
43160;SDS011;40968;52.342;5.528;2022-09-03T10:53:23;3.65;;;1.48;;
43160;SDS011;40968;52.342;5.528;2022-09-03T10:56:03;3.45;;;1.40;;
43160;SDS011;40968;52.342;5.528;2022-09-03T10:58:42;5.85;;;1.65;;
43160;SDS011;40968;52.342;5.528;2022-09-03T11:01:17;4.03;;;1.42;;
43160;SDS011;40968;52.342;5.528;2022-09-03T11:03:52;2.88;;;1.38;;
43160;SDS011;40968;52.342;5.528;2022-09-03T11:06:28;3.88;;;1.50;;
43160;SDS011;40968;52.342;5.528;2022-09-03T11:08:57;8.88;;;1.38;;
43160;SDS011;40968;52.342;5.528;2022-09-03T11:11:29;3.10;;;1.52;;
43160;SDS011;40968;52.342;5.528;2022-09-03T11:14:01;2.20;;;1.30;;
43160;SDS011;40968;52.342;5.528;2022-09-03T11:16:33;5.30;;;1.30;;
43160;SDS011;40968;52.342;5.528;2022-09-03T11:19:03;1.88;;;1.10;;
43160;SDS011;40968;52.342;5.528;2022-09-03T11:21:35;3.67;;;1.40;;
43160;SDS011;40968;52.342;5.528;2022-09-03T11:24:08;3.47;;;1.52;;
43160;SDS011;40968;52.342;5.528;2022-09-03T11:26:39;4.82;;;1.77;;
43160;SDS011;40968;52.342;5.528;2022-09-03T11:29:09;2.75;;;1.30;;
43160;SDS011;40968;52.342;5.528;2022-09-03T11:31:51;2.90;;;1.50;;
43160;SDS011;40968;52.342;5.528;2022-09-03T11:34:26;4.22;;;1.77;;
43160;SDS011;40968;52.342;5.528;2022-09-03T11:37:05;3.58;;;1.52;;
43160;SDS011;40968;52.342;5.528;2022-09-03T11:39:43;5.38;;;1.70;;
43160;SDS011;40968;52.342;5.528;2022-09-03T11:42:11;10.60;;;1.60;;
43160;SDS011;40968;52.342;5.528;2022-09-03T11:44:49;5.03;;;1.48;;
43160;SDS011;40968;52.342;5.528;2022-09-03T11:49:47;5.45;;;1.80;;
43160;SDS011;40968;52.342;5.528;2022-09-03T11:52:26;3.80;;;1.40;;
43160;SDS011;40968;52.342;5.528;2022-09-03T11:54:55;4.63;;;1.48;;
43160;SDS011;40968;52.342;5.528;2022-09-03T11:57:22;4.75;;;1.38;;
43160;SDS011;40968;52.342;5.528;2022-09-03T11:59:52;4.60;;;1.42;;
43160;SDS011;40968;52.342;5.528;2022-09-03T12:02:23;5.05;;;1.35;;
43160;SDS011;40968;52.342;5.528;2022-09-03T12:04:55;5.28;;;1.40;;
43160;SDS011;40968;52.342;5.528;2022-09-03T12:07:40;5.63;;;1.27;;
43160;SDS011;40968;52.342;5.528;2022-09-03T12:10:19;4.97;;;1.55;;
43160;SDS011;40968;52.342;5.528;2022-09-03T12:12:56;6.03;;;1.60;;
43160;SDS011;40968;52.342;5.528;2022-09-03T12:18:07;7.72;;;1.48;;
43160;SDS011;40968;52.342;5.528;2022-09-03T12:20:47;3.13;;;1.30;;
43160;SDS011;40968;52.342;5.528;2022-09-03T12:23:25;4.05;;;1.38;;
43160;SDS011;40968;52.342;5.528;2022-09-03T12:25:55;5.60;;;1.33;;
43160;SDS011;40968;52.342;5.528;2022-09-03T12:28:23;4.78;;;1.48;;
43160;SDS011;40968;52.342;5.528;2022-09-03T12:30:51;3.17;;;1.50;;
43160;SDS011;40968;52.342;5.528;2022-09-03T12:33:19;5.07;;;1.30;;
43160;SDS011;40968;52.342;5.528;2022-09-03T12:35:56;4.40;;;1.58;;
43160;SDS011;40968;52.342;5.528;2022-09-03T12:38:23;5.60;;;1.63;;
43160;SDS011;40968;52.342;5.528;2022-09-03T12:40:50;4.00;;;1.83;;
43160;SDS011;40968;52.342;5.528;2022-09-03T12:43:25;3.20;;;1.30;;
43160;SDS011;40968;52.342;5.528;2022-09-03T12:45:53;3.70;;;1.40;;
43160;SDS011;40968;52.342;5.528;2022-09-03T12:48:20;2.35;;;1.40;;
43160;SDS011;40968;52.342;5.528;2022-09-03T12:50:48;2.35;;;1.20;;
43160;SDS011;40968;52.342;5.528;2022-09-03T12:53:26;3.08;;;1.48;;
43160;SDS011;40968;52.342;5.528;2022-09-03T12:58:27;5.35;;;1.60;;
43160;SDS011;40968;52.342;5.528;2022-09-03T13:00:58;5.28;;;1.60;;
43160;SDS011;40968;52.342;5.528;2022-09-03T13:03:35;4.18;;;1.52;;
43160;SDS011;40968;52.342;5.528;2022-09-03T13:06:10;3.65;;;1.40;;
43160;SDS011;40968;52.342;5.528;2022-09-03T13:08:43;4.13;;;1.45;;
43160;SDS011;40968;52.342;5.528;2022-09-03T13:11:14;3.05;;;1.40;;
43160;SDS011;40968;52.342;5.528;2022-09-03T13:13:51;2.20;;;1.27;;
43160;SDS011;40968;52.342;5.528;2022-09-03T13:16:28;5.50;;;1.42;;
43160;SDS011;40968;52.342;5.528;2022-09-03T13:19:13;10.70;;;1.92;;
43160;SDS011;40968;52.342;5.528;2022-09-03T13:21:47;2.83;;;1.45;;
43160;SDS011;40968;52.342;5.528;2022-09-03T13:24:26;2.47;;;1.50;;
43160;SDS011;40968;52.342;5.528;2022-09-03T13:27:06;8.52;;;1.80;;
43160;SDS011;40968;52.342;5.528;2022-09-03T13:29:49;4.75;;;1.38;;
43160;SDS011;40968;52.342;5.528;2022-09-03T13:32:29;5.70;;;1.42;;
43160;SDS011;40968;52.342;5.528;2022-09-03T13:35:03;3.53;;;1.45;;
43160;SDS011;40968;52.342;5.528;2022-09-03T13:37:36;7.90;;;1.70;;
43160;SDS011;40968;52.342;5.528;2022-09-03T13:40:10;4.20;;;1.60;;
43160;SDS011;40968;52.342;5.528;2022-09-03T13:42:42;4.18;;;1.55;;
43160;SDS011;40968;52.342;5.528;2022-09-03T13:45:25;4.15;;;1.65;;
43160;SDS011;40968;52.342;5.528;2022-09-03T13:47:57;3.42;;;1.52;;
43160;SDS011;40968;52.342;5.528;2022-09-03T13:50:47;3.13;;;1.33;;
43160;SDS011;40968;52.342;5.528;2022-09-03T13:53:18;2.90;;;1.50;;
43160;SDS011;40968;52.342;5.528;2022-09-03T13:55:56;3.50;;;1.50;;
43160;SDS011;40968;52.342;5.528;2022-09-03T13:58:31;5.90;;;1.60;;
43160;SDS011;40968;52.342;5.528;2022-09-03T14:01:05;3.20;;;1.52;;
43160;SDS011;40968;52.342;5.528;2022-09-03T14:03:42;4.53;;;1.60;;
43160;SDS011;40968;52.342;5.528;2022-09-03T14:06:13;2.05;;;1.42;;
43160;SDS011;40968;52.342;5.528;2022-09-03T14:08:58;3.35;;;1.35;;
43160;SDS011;40968;52.342;5.528;2022-09-03T14:11:33;3.33;;;1.67;;
43160;SDS011;40968;52.342;5.528;2022-09-03T14:16:45;6.95;;;1.60;;
43160;SDS011;40968;52.342;5.528;2022-09-03T14:19:20;4.45;;;1.58;;
43160;SDS011;40968;52.342;5.528;2022-09-03T14:21:58;2.60;;;1.35;;
43160;SDS011;40968;52.342;5.528;2022-09-03T14:24:35;6.15;;;1.50;;
43160;SDS011;40968;52.342;5.528;2022-09-03T14:27:10;5.80;;;1.50;;
43160;SDS011;40968;52.342;5.528;2022-09-03T14:29:48;4.47;;;1.58;;
43160;SDS011;40968;52.342;5.528;2022-09-03T14:32:21;3.42;;;1.50;;
43160;SDS011;40968;52.342;5.528;2022-09-03T14:35:11;5.75;;;2.10;;
43160;SDS011;40968;52.342;5.528;2022-09-03T14:37:51;4.80;;;1.63;;
43160;SDS011;40968;52.342;5.528;2022-09-03T14:40:33;6.18;;;1.48;;
43160;SDS011;40968;52.342;5.528;2022-09-03T14:43:14;5.82;;;1.30;;
43160;SDS011;40968;52.342;5.528;2022-09-03T14:46:00;4.03;;;1.50;;
43160;SDS011;40968;52.342;5.528;2022-09-03T14:48:51;3.53;;;1.52;;
43160;SDS011;40968;52.342;5.528;2022-09-03T14:51:33;5.15;;;1.70;;
43160;SDS011;40968;52.342;5.528;2022-09-03T14:57:06;4.60;;;1.67;;
43160;SDS011;40968;52.342;5.528;2022-09-03T14:59:52;5.90;;;1.70;;
43160;SDS011;40968;52.342;5.528;2022-09-03T15:02:38;2.35;;;1.50;;
43160;SDS011;40968;52.342;5.528;2022-09-03T15:05:16;2.92;;;1.40;;
43160;SDS011;40968;52.342;5.528;2022-09-03T15:07:53;3.65;;;1.40;;
43160;SDS011;40968;52.342;5.528;2022-09-03T15:10:25;6.00;;;1.70;;
43160;SDS011;40968;52.342;5.528;2022-09-03T15:12:57;7.72;;;2.47;;
43160;SDS011;40968;52.342;5.528;2022-09-03T15:15:32;5.35;;;2.75;;
43160;SDS011;40968;52.342;5.528;2022-09-03T15:18:15;5.30;;;1.65;;
43160;SDS011;40968;52.342;5.528;2022-09-03T15:20:57;6.38;;;1.65;;
43160;SDS011;40968;52.342;5.528;2022-09-03T15:23:39;5.53;;;1.77;;
43160;SDS011;40968;52.342;5.528;2022-09-03T15:26:20;6.05;;;1.60;;
43160;SDS011;40968;52.342;5.528;2022-09-03T15:31:57;3.28;;;1.85;;
43160;SDS011;40968;52.342;5.528;2022-09-03T15:34:45;5.32;;;1.67;;
43160;SDS011;40968;52.342;5.528;2022-09-03T15:37:24;4.40;;;1.50;;
43160;SDS011;40968;52.342;5.528;2022-09-03T15:39:59;3.33;;;1.50;;
43160;SDS011;40968;52.342;5.528;2022-09-03T15:42:30;6.13;;;1.50;;
43160;SDS011;40968;52.342;5.528;2022-09-03T15:45:00;4.60;;;1.35;;